Time;durP1;ratioP1;P1;durP2;ratioP2;P2;SDS_P1;SDS_P2;PMS_P1;PMS_P2;Temp;Humidity;BMP_temperature;BMP_pressure;BME280_temperature;BME280_humidity;BME280_pressure;Samples;Min_cycle;Max_cycle;Signal;HPM_P1;HPM_P2
2021/06/01 00:01:28;;;;;;;28.67;26.87;;;12.90;70.10;;;;;;5118239;27;20914;-77
2021/06/01 00:03:56;;;;;;;28.60;26.90;;;12.80;69.00;;;;;;5108588;27;20479;-77
2021/06/01 00:06:23;;;;;;;28.50;27.00;;;12.80;68.90;;;;;;5104298;28;20460;-77
2021/06/01 00:08:50;;;;;;;28.30;26.70;;;12.80;69.00;;;;;;5107700;27;20500;-77
2021/06/01 00:11:16;;;;;;;27.67;25.77;;;12.70;69.40;;;;;;5108807;27;20467;-77
2021/06/01 00:13:43;;;;;;;27.57;26.07;;;12.70;69.60;;;;;;5107694;28;20562;-77
2021/06/01 00:16:11;;;;;;;29.00;27.17;;;12.60;69.70;;;;;;5108992;27;20510;-77
2021/06/01 00:18:39;;;;;;;28.60;27.00;;;12.50;70.10;;;;;;5106690;28;21233;-77
2021/06/01 00:21:07;;;;;;;28.50;26.90;;;12.50;70.50;;;;;;5109195;27;20976;-77
2021/06/01 00:23:37;;;;;;;28.90;27.30;;;12.50;70.20;;;;;;5103493;28;20508;-77
2021/06/01 00:26:04;;;;;;;28.70;27.10;;;12.50;70.30;;;;;;5097317;27;20449;-77
2021/06/01 00:28:30;;;;;;;28.20;26.60;;;12.40;70.50;;;;;;5096104;28;20453;-77
2021/06/01 00:30:57;;;;;;;28.83;27.23;;;12.40;70.40;;;;;;5108390;27;20508;-77
2021/06/01 00:33:24;;;;;;;28.63;26.90;;;12.40;70.50;;;;;;5106381;28;20476;-77
2021/06/01 00:35:50;;;;;;;28.47;26.73;;;12.40;70.80;;;;;;5113452;27;20459;-78
2021/06/01 00:38:19;;;;;;;28.60;27.00;;;12.40;70.70;;;;;;5113089;27;20551;-77
2021/06/01 00:40:45;;;;;;;28.23;26.70;;;12.30;70.80;;;;;;5106072;28;20464;-77
2021/06/01 00:43:12;;;;;;;29.03;27.33;;;12.20;71.20;;;;;;5106254;28;21319;-77
2021/06/01 00:45:38;;;;;;;28.50;26.70;;;12.20;71.50;;;;;;5106168;28;20467;-77
2021/06/01 00:48:05;;;;;;;28.73;27.10;;;12.10;71.70;;;;;;5099816;27;20468;-77
2021/06/01 00:50:32;;;;;;;28.97;27.17;;;12.10;71.60;;;;;;5095746;28;20463;-77
2021/06/01 00:53:00;;;;;;;29.07;27.37;;;12.10;71.90;;;;;;5098602;28;20485;-77
2021/06/01 00:55:28;;;;;;;28.80;27.00;;;12.00;72.10;;;;;;5105295;27;20474;-77
2021/06/01 00:57:56;;;;;;;28.25;26.50;;;12.00;72.20;;;;;;5106896;28;20448;-77
2021/06/01 01:00:48;;;;;;;28.53;26.93;;;11.90;72.60;;;;;;5093026;27;20190;-77
2021/06/01 01:03:15;;;;;;;28.53;26.67;;;11.80;73.20;;;;;;5106027;28;20472;-77
2021/06/01 01:05:44;;;;;;;28.67;27.07;;;11.70;73.50;;;;;;5104182;28;20509;-77
2021/06/01 01:08:32;;;;;;;29.10;27.40;;;11.70;73.50;;;;;;5106330;28;20938;-77
2021/06/01 01:11:03;;;;;;;28.85;27.25;;;11.60;73.70;;;;;;5115288;27;20473;-78
2021/06/01 01:13:37;;;;;;;28.90;27.27;;;11.60;74.10;;;;;;5112850;27;20218;-78
2021/06/01 01:16:06;;;;;;;28.40;26.70;;;11.60;74.10;;;;;;5108535;27;20496;-77
2021/06/01 01:18:35;;;;;;;29.15;27.38;;;11.50;74.20;;;;;;5106108;27;20452;-77
2021/06/01 01:21:08;;;;;;;29.10;27.50;;;11.50;74.50;;;;;;5113629;27;20208;-77
2021/06/01 01:23:40;;;;;;;29.50;27.70;;;11.30;75.10;;;;;;5118083;27;20975;-77
2021/06/01 01:26:14;;;;;;;30.67;28.52;;;11.30;75.30;;;;;;5108261;27;20455;-77
2021/06/01 01:28:54;;;;;;;28.98;27.38;;;11.30;75.10;;;;;;5105863;27;20216;-77
2021/06/01 01:31:28;;;;;;;29.00;27.30;;;11.30;75.00;;;;;;5103534;28;20625;-77
2021/06/01 01:33:58;;;;;;;28.95;27.25;;;11.40;74.80;;;;;;5105018;28;20226;-77
2021/06/01 01:36:26;;;;;;;28.63;27.02;;;11.40;74.70;;;;;;5119082;27;20967;-77
2021/06/01 01:38:53;;;;;;;28.65;26.95;;;11.30;75.10;;;;;;5105388;28;20194;-77
2021/06/01 01:41:20;;;;;;;29.63;27.90;;;11.20;75.30;;;;;;5108151;27;20208;-77
2021/06/01 01:43:48;;;;;;;29.20;27.60;;;11.20;75.50;;;;;;5101393;28;20849;-77
2021/06/01 01:46:26;;;;;;;28.05;26.25;;;11.10;75.60;;;;;;5103699;28;20194;-77
2021/06/01 01:49:00;;;;;;;28.00;26.40;;;11.10;75.80;;;;;;5097599;28;20643;-77
2021/06/01 01:51:32;;;;;;;28.48;26.77;;;11.00;76.00;;;;;;5105526;27;20722;-77
2021/06/01 01:54:01;;;;;;;27.23;25.70;;;11.00;76.10;;;;;;5113164;27;20602;-78
2021/06/01 01:56:32;;;;;;;28.77;27.17;;;11.10;75.80;;;;;;5111312;27;20229;-77
2021/06/01 01:58:59;;;;;;;28.45;26.85;;;11.00;76.00;;;;;;5112597;27;20198;-77
2021/06/01 02:01:26;;;;;;;28.33;26.73;;;11.00;76.20;;;;;;5119998;27;20551;-77
2021/06/01 02:03:53;;;;;;;28.48;26.88;;;10.90;76.40;;;;;;5105009;27;20703;-77
2021/06/01 02:06:20;;;;;;;28.40;26.80;;;10.90;76.60;;;;;;5107038;27;20414;-78
2021/06/01 02:08:48;;;;;;;28.08;26.33;;;10.90;76.50;;;;;;5094752;28;20205;-77
2021/06/01 02:11:14;;;;;;;28.40;26.75;;;10.90;76.50;;;;;;5118978;27;20998;-77
2021/06/01 02:13:43;;;;;;;28.83;27.13;;;10.80;76.70;;;;;;5107690;27;20246;-78
2021/06/01 02:16:09;;;;;;;29.23;27.35;;;10.80;76.80;;;;;;5108930;27;20320;-78
2021/06/01 02:18:36;;;;;;;28.08;26.27;;;10.70;77.10;;;;;;5104944;28;20199;-77
2021/06/01 02:21:05;;;;;;;29.23;27.52;;;10.70;77.30;;;;;;5107528;27;20206;-78
2021/06/01 02:23:48;;;;;;;32.88;30.95;;;10.60;77.30;;;;;;5104220;28;20215;-77
2021/06/01 02:26:36;;;;;;;29.38;27.58;;;10.70;77.40;;;;;;5107975;27;20789;-77
2021/06/01 02:29:07;;;;;;;28.00;26.50;;;10.70;77.10;;;;;;5106821;27;20282;-77
2021/06/01 02:31:37;;;;;;;29.08;27.38;;;10.70;77.10;;;;;;5122599;27;20198;-77
2021/06/01 02:34:06;;;;;;;29.60;27.70;;;10.60;77.40;;;;;;5104582;28;20219;-78
2021/06/01 02:36:35;;;;;;;27.73;26.08;;;10.50;77.80;;;;;;5100694;28;20223;-77
2021/06/01 02:39:01;;;;;;;28.73;26.90;;;10.50;78.20;;;;;;5093948;28;20220;-77
2021/06/01 02:41:29;;;;;;;29.08;27.38;;;10.50;77.90;;;;;;5103924;28;21076;-77
2021/06/01 02:43:56;;;;;;;29.52;27.83;;;10.50;78.20;;;;;;5097723;28;20298;-77
2021/06/01 02:46:23;;;;;;;29.40;27.30;;;10.50;78.00;;;;;;5101654;28;20195;-77
2021/06/01 02:48:51;;;;;;;28.73;26.98;;;10.50;78.00;;;;;;5103430;28;20202;-78
2021/06/01 02:51:18;;;;;;;29.85;27.95;;;10.30;78.20;;;;;;5102507;28;20198;-77
2021/06/01 02:53:47;;;;;;;28.50;26.80;;;10.30;78.50;;;;;;5103979;28;20229;-77
2021/06/01 02:56:15;;;;;;;30.80;28.98;;;10.40;78.30;;;;;;5107959;28;20529;-77
2021/06/01 02:58:44;;;;;;;29.48;27.58;;;10.40;78.30;;;;;;5104625;28;20202;-77
2021/06/01 03:01:14;;;;;;;27.73;26.13;;;10.20;78.50;;;;;;5113534;28;20229;-77
2021/06/01 03:03:48;;;;;;;28.05;26.33;;;10.20;78.70;;;;;;5105113;28;20891;-77
2021/06/01 03:06:16;;;;;;;28.92;27.23;;;10.20;78.90;;;;;;5106098;27;20202;-78
2021/06/01 03:08:42;;;;;;;28.88;27.00;;;10.20;78.80;;;;;;5105173;28;20743;-77
2021/06/01 03:11:09;;;;;;;29.60;27.80;;;10.20;78.90;;;;;;5114376;27;20317;-77
2021/06/01 03:13:36;;;;;;;30.58;28.25;;;10.10;79.00;;;;;;5095444;28;20226;-76
2021/06/01 03:16:05;;;;;;;29.50;27.70;;;10.20;79.00;;;;;;5101377;28;20206;-76
2021/06/01 03:18:31;;;;;;;32.25;30.10;;;10.10;79.20;;;;;;5103326;28;20758;-77
2021/06/01 03:20:58;;;;;;;28.98;27.23;;;10.20;78.90;;;;;;5111787;28;20572;-77
2021/06/01 03:23:25;;;;;;;29.35;27.45;;;10.20;78.60;;;;;;5104066;27;20250;-77
2021/06/01 03:25:52;;;;;;;29.40;27.60;;;10.20;78.70;;;;;;5099821;27;20319;-77
2021/06/01 03:28:19;;;;;;;29.55;27.75;;;10.20;78.60;;;;;;5097015;28;20201;-77
2021/06/01 03:30:46;;;;;;;29.38;27.60;;;10.20;78.60;;;;;;5112407;27;20197;-77
2021/06/01 03:33:15;;;;;;;33.20;30.77;;;10.20;78.90;;;;;;5104717;28;20241;-77
2021/06/01 03:35:41;;;;;;;29.45;27.52;;;10.20;78.90;;;;;;5107325;27;20194;-77
2021/06/01 03:38:09;;;;;;;32.78;30.38;;;10.10;79.20;;;;;;5102687;28;20880;-78
2021/06/01 03:40:36;;;;;;;31.33;29.33;;;10.10;79.40;;;;;;5113790;27;20197;-77
2021/06/01 03:43:02;;;;;;;29.80;28.10;;;10.10;79.10;;;;;;5108408;28;21085;-77
2021/06/01 03:45:29;;;;;;;30.38;28.50;;;10.20;79.20;;;;;;5102103;27;20246;-77
2021/06/01 03:47:55;;;;;;;28.30;26.65;;;10.20;79.00;;;;;;5107580;27;20194;-77
2021/06/01 03:50:23;;;;;;;29.20;27.50;;;10.20;79.10;;;;;;5108911;28;20206;-78
2021/06/01 03:52:50;;;;;;;29.05;27.25;;;10.30;78.90;;;;;;5110776;27;20692;-77
2021/06/01 03:55:17;;;;;;;29.60;27.77;;;10.50;78.00;;;;;;5111475;27;20214;-77
2021/06/01 03:57:45;;;;;;;28.92;27.13;;;10.80;77.40;;;;;;5120415;27;20465;-78
2021/06/01 04:00:14;;;;;;;30.70;28.90;;;10.90;76.60;;;;;;5103233;27;20194;-77
2021/06/01 04:02:41;;;;;;;29.75;27.95;;;11.10;75.80;;;;;;5111955;27;20263;-77
2021/06/01 04:05:08;;;;;;;29.33;27.52;;;11.20;75.30;;;;;;5108370;27;20276;-77
2021/06/01 04:07:35;;;;;;;28.75;26.98;;;11.30;74.90;;;;;;5109309;28;20564;-78
2021/06/01 04:10:02;;;;;;;28.90;27.20;;;11.20;75.10;;;;;;5111540;27;20194;-77
2021/06/01 04:12:29;;;;;;;32.65;30.58;;;11.30;74.90;;;;;;5118701;27;20253;-77
2021/06/01 04:14:55;;;;;;;29.13;27.42;;;11.30;74.90;;;;;;5104032;27;20218;-77
2021/06/01 04:17:21;;;;;;;28.85;27.15;;;11.40;74.90;;;;;;5105144;28;20190;-77
2021/06/01 04:19:48;;;;;;;29.60;27.10;;;11.40;74.40;;;;;;5103737;27;20216;-77
2021/06/01 04:22:15;;;;;;;29.10;27.20;;;11.50;74.10;;;;;;5106132;27;20218;-77
2021/06/01 04:24:42;;;;;;;28.80;27.10;;;11.50;74.10;;;;;;5098587;27;20729;-77
2021/06/01 04:27:09;;;;;;;31.13;29.25;;;11.50;74.10;;;;;;5106583;27;20205;-77
2021/06/01 04:29:36;;;;;;;33.72;31.73;;;11.40;74.40;;;;;;5105960;27;20194;-77
2021/06/01 04:32:03;;;;;;;31.85;29.95;;;11.40;74.70;;;;;;5127075;27;20226;-72
2021/06/01 04:34:29;;;;;;;30.80;28.80;;;11.50;74.60;;;;;;5107538;27;20612;-78
2021/06/01 04:36:56;;;;;;;29.42;27.60;;;11.40;74.80;;;;;;5118595;27;20205;-78
2021/06/01 04:39:23;;;;;;;33.90;31.60;;;11.50;74.40;;;;;;5106986;28;20713;-78
2021/06/01 04:41:51;;;;;;;30.23;28.52;;;11.40;74.60;;;;;;5104575;28;20203;-78
2021/06/01 04:44:17;;;;;;;34.13;32.13;;;11.40;74.80;;;;;;5113084;27;20197;-77
2021/06/01 04:46:43;;;;;;;31.65;29.75;;;11.40;74.70;;;;;;5099207;27;20203;-79
2021/06/01 04:49:10;;;;;;;32.58;30.55;;;11.50;74.60;;;;;;5100130;27;20275;-78
2021/06/01 04:51:36;;;;;;;29.63;27.93;;;11.60;74.50;;;;;;5106995;27;20668;-78
2021/06/01 04:54:04;;;;;;;30.75;28.42;;;11.70;74.10;;;;;;5113601;27;20483;-78
2021/06/01 04:56:30;;;;;;;30.30;28.30;;;11.90;73.50;;;;;;5122773;27;20219;-78
2021/06/01 04:58:58;;;;;;;32.07;29.97;;;12.00;73.10;;;;;;5112126;27;20456;-78
2021/06/01 05:01:25;;;;;;;30.83;28.93;;;12.00;73.00;;;;;;5107590;27;20530;-78
2021/06/01 05:03:52;;;;;;;30.65;28.75;;;12.00;72.90;;;;;;5106253;27;20573;-78
2021/06/01 05:06:18;;;;;;;29.90;28.03;;;12.10;72.90;;;;;;5103406;27;20648;-76
2021/06/01 05:08:45;;;;;;;30.23;28.23;;;12.20;72.90;;;;;;5108119;28;20458;-76
2021/06/01 05:11:12;;;;;;;29.70;27.80;;;12.20;72.50;;;;;;5104248;28;20488;-73
2021/06/01 05:13:38;;;;;;;29.27;27.47;;;12.20;72.80;;;;;;5103389;28;20512;-74
2021/06/01 05:16:06;;;;;;;31.80;29.90;;;12.30;72.80;;;;;;5111654;27;20462;-75
2021/06/01 05:18:33;;;;;;;30.10;28.00;;;12.40;72.70;;;;;;5099883;28;20505;-78
2021/06/01 05:20:59;;;;;;;30.70;28.90;;;12.60;72.20;;;;;;5105010;27;21161;-77
2021/06/01 05:23:26;;;;;;;29.93;28.03;;;12.70;71.80;;;;;;5104952;28;20472;-78
2021/06/01 05:25:54;;;;;;;29.67;27.80;;;12.80;71.60;;;;;;5113903;27;20472;-75
2021/06/01 05:28:21;;;;;;;30.20;28.40;;;12.80;71.60;;;;;;5111015;27;20462;-74
2021/06/01 05:30:56;;;;;;;32.67;30.63;;;13.00;71.70;;;;;;5096225;28;20461;-75
2021/06/01 05:33:25;;;;;;;30.20;28.20;;;13.20;71.40;;;;;;5104239;27;20478;-74
2021/06/01 05:35:53;;;;;;;29.70;28.00;;;13.40;71.30;;;;;;5110879;27;20818;-75
2021/06/01 05:38:20;;;;;;;30.20;28.30;;;13.50;72.20;;;;;;5104821;28;21079;-75
2021/06/01 05:40:47;;;;;;;30.77;28.97;;;13.50;69.80;;;;;;5103105;28;21184;-75
2021/06/01 05:43:13;;;;;;;31.17;29.27;;;13.70;68.90;;;;;;5104684;27;20484;-74
2021/06/01 05:45:40;;;;;;;32.13;30.23;;;13.80;72.80;;;;;;5103635;28;20466;-74
2021/06/01 05:48:08;;;;;;;30.87;29.17;;;13.90;70.00;;;;;;5105079;28;20456;-74
2021/06/01 05:50:37;;;;;;;31.67;29.63;;;14.00;71.80;;;;;;5098625;27;20492;-74
2021/06/01 05:53:05;;;;;;;36.50;34.60;;;14.10;69.30;;;;;;5102064;27;21088;-72
2021/06/01 05:55:32;;;;;;;30.87;29.00;;;14.30;68.10;;;;;;5106564;27;20536;-72
2021/06/01 05:57:59;;;;;;;33.33;31.33;;;14.40;67.90;;;;;;5115585;27;20455;-73
2021/06/01 06:00:27;;;;;;;31.60;29.70;;;14.50;68.40;;;;;;5115762;27;20541;-73
2021/06/01 06:02:54;;;;;;;31.77;29.77;;;14.70;65.70;;;;;;5103547;28;20226;-73
2021/06/01 06:05:21;;;;;;;32.10;30.20;;;14.70;64.80;;;;;;5109914;27;20457;-74
2021/06/01 06:07:49;;;;;;;32.70;30.70;;;14.80;64.10;;;;;;5095762;28;20452;-74
2021/06/01 06:10:16;;;;;;;33.00;30.90;;;14.90;65.20;;;;;;5100543;28;20460;-74
2021/06/01 06:12:43;;;;;;;31.67;29.77;;;15.00;63.60;;;;;;5104923;28;20591;-73
2021/06/01 06:15:12;;;;;;;30.73;28.93;;;15.10;63.20;;;;;;5107788;27;20998;-74
2021/06/01 06:17:47;;;;;;;31.07;29.03;;;15.20;62.70;;;;;;5109700;27;20571;-75
2021/06/01 06:20:14;;;;;;;33.90;31.70;;;15.50;62.20;;;;;;5107934;27;20463;-76
2021/06/01 06:22:41;;;;;;;31.33;29.43;;;15.60;61.60;;;;;;5122571;27;20566;-75
2021/06/01 06:25:12;;;;;;;34.13;31.83;;;15.70;61.10;;;;;;5105413;27;20455;-76
2021/06/01 06:27:39;;;;;;;33.07;30.77;;;15.80;60.80;;;;;;5110938;27;20877;-73
2021/06/01 06:30:08;;;;;;;32.83;30.47;;;15.80;60.50;;;;;;5107170;28;21134;-74
2021/06/01 06:32:35;;;;;;;33.10;30.50;;;15.90;60.50;;;;;;5119256;27;20967;-81
2021/06/01 06:35:03;;;;;;;33.37;30.80;;;16.00;59.40;;;;;;5106266;28;20590;-79
2021/06/01 06:37:29;;;;;;;31.57;29.50;;;16.20;59.70;;;;;;5106544;27;20467;-78
2021/06/01 06:39:56;;;;;;;30.77;28.80;;;16.40;59.00;;;;;;5105534;28;20460;-78
2021/06/01 06:42:23;;;;;;;31.90;29.90;;;16.40;58.20;;;;;;5102279;28;20473;-76
2021/06/01 06:44:51;;;;;;;32.07;29.90;;;16.40;59.20;;;;;;5098420;28;20751;-75
2021/06/01 06:47:23;;;;;;;30.97;29.17;;;16.60;58.90;;;;;;5093675;28;20452;-75
2021/06/01 06:49:50;;;;;;;34.57;32.17;;;16.70;57.80;;;;;;5094178;28;20515;-74
2021/06/01 06:52:16;;;;;;;30.10;28.10;;;16.70;57.90;;;;;;5095331;28;20491;-76
2021/06/01 06:54:43;;;;;;;31.73;29.63;;;16.70;56.90;;;;;;5096759;28;21010;-76
2021/06/01 06:57:10;;;;;;;35.03;32.57;;;16.80;57.30;;;;;;5103525;28;20528;-73
2021/06/01 06:59:37;;;;;;;33.33;31.13;;;16.90;57.90;;;;;;5102324;28;21001;-78
2021/06/01 07:02:05;;;;;;;32.47;30.27;;;17.20;57.30;;;;;;5125731;27;20470;-78
2021/06/01 07:04:31;;;;;;;31.87;29.97;;;17.20;56.20;;;;;;5112364;28;20514;-78
2021/06/01 07:06:59;;;;;;;31.03;29.23;;;17.30;55.80;;;;;;5105473;28;20452;-78
2021/06/01 07:09:25;;;;;;;29.53;27.93;;;17.40;54.90;;;;;;5102512;28;20937;-78
2021/06/01 07:11:52;;;;;;;29.03;27.43;;;17.40;54.40;;;;;;5103055;28;20533;-78
2021/06/01 07:14:42;;;;;;;29.40;27.67;;;17.50;53.80;;;;;;5103159;28;20533;-78
2021/06/01 07:17:10;;;;;;;29.40;27.80;;;17.60;53.60;;;;;;5074213;28;20535;-79
2021/06/01 07:19:36;;;;;;;29.70;28.00;;;17.60;53.90;;;;;;5118490;27;20539;-78
2021/06/01 07:22:03;;;;;;;29.10;27.40;;;17.60;53.40;;;;;;5100813;27;20672;-78
2021/06/01 07:24:29;;;;;;;30.53;28.67;;;17.70;52.80;;;;;;5101046;27;20456;-78
2021/06/01 07:26:56;;;;;;;28.83;27.23;;;17.80;53.10;;;;;;5119037;27;20459;-78
2021/06/01 07:29:23;;;;;;;29.30;27.60;;;18.00;52.70;;;;;;5107402;28;21079;-79
2021/06/01 07:31:50;;;;;;;30.33;28.43;;;18.30;51.80;;;;;;5106371;28;20474;-78
2021/06/01 07:34:19;;;;;;;29.20;27.43;;;18.30;51.70;;;;;;5105203;28;20507;-78
2021/06/01 07:36:45;;;;;;;30.30;28.60;;;18.40;51.50;;;;;;5100219;27;21058;-78
2021/06/01 07:39:11;;;;;;;31.47;29.47;;;18.40;51.30;;;;;;5101078;27;20485;-78
2021/06/01 07:41:38;;;;;;;30.53;28.53;;;18.40;51.70;;;;;;5100767;27;20488;-78
2021/06/01 07:44:05;;;;;;;31.43;29.43;;;18.50;50.60;;;;;;5101597;28;20471;-78
2021/06/01 07:46:32;;;;;;;31.70;29.50;;;18.40;51.10;;;;;;5103439;27;20539;-78
2021/06/01 07:48:59;;;;;;;31.43;29.60;;;18.20;51.00;;;;;;5106163;28;21158;-78
2021/06/01 07:51:30;;;;;;;31.10;29.00;;;18.30;51.10;;;;;;5117880;27;20479;-78
2021/06/01 07:53:58;;;;;;;31.50;29.40;;;18.60;50.80;;;;;;5109751;27;20475;-79
2021/06/01 07:56:25;;;;;;;31.60;29.70;;;18.90;50.10;;;;;;5110284;27;20822;-79
2021/06/01 07:58:52;;;;;;;31.53;29.23;;;19.20;49.50;;;;;;5097008;27;20464;-78
2021/06/01 08:01:19;;;;;;;29.60;27.57;;;19.20;49.30;;;;;;5100365;27;20573;-78
2021/06/01 08:03:45;;;;;;;29.67;28.00;;;19.20;49.50;;;;;;5103849;27;20482;-79
2021/06/01 08:06:12;;;;;;;29.40;27.80;;;19.20;49.10;;;;;;5119013;27;20995;-78
2021/06/01 08:08:40;;;;;;;29.90;28.10;;;19.20;48.90;;;;;;5104784;27;20461;-78
2021/06/01 08:11:06;;;;;;;31.27;29.47;;;19.00;48.50;;;;;;5105912;27;20461;-80
2021/06/01 08:13:34;;;;;;;31.67;29.77;;;19.20;48.60;;;;;;5112740;27;20911;-79
2021/06/01 08:16:02;;;;;;;35.30;33.00;;;19.50;48.20;;;;;;5106662;27;21012;-78
2021/06/01 08:18:32;;;;;;;30.20;28.40;;;19.70;47.40;;;;;;5102096;28;20892;-78
2021/06/01 08:21:03;;;;;;;30.40;28.60;;;19.80;48.00;;;;;;5108042;27;20456;-78
2021/06/01 08:23:30;;;;;;;30.53;28.83;;;19.70;47.10;;;;;;5103092;28;21379;-78
2021/06/01 08:25:58;;;;;;;32.70;30.70;;;19.60;47.00;;;;;;5112051;27;20468;-78
2021/06/01 08:28:25;;;;;;;30.97;29.07;;;19.50;47.90;;;;;;5104918;28;20455;-78
2021/06/01 08:30:52;;;;;;;30.37;28.57;;;19.40;47.70;;;;;;5099418;27;20942;-78
2021/06/01 08:33:19;;;;;;;32.73;30.73;;;19.50;47.90;;;;;;5094917;28;20488;-78
2021/06/01 08:35:46;;;;;;;29.33;27.73;;;19.50;47.50;;;;;;5106799;27;20563;-77
2021/06/01 08:38:14;;;;;;;28.83;27.20;;;19.80;47.20;;;;;;5113721;27;21245;-78
2021/06/01 08:40:41;;;;;;;33.77;32.03;;;19.90;46.80;;;;;;5112148;27;20488;-79
2021/06/01 08:43:21;;;;;;;29.60;27.83;;;20.10;47.00;;;;;;5099607;28;21066;-79
2021/06/01 08:45:52;;;;;;;29.10;27.40;;;20.40;45.60;;;;;;5096785;27;20517;-78
2021/06/01 08:48:19;;;;;;;30.47;28.67;;;20.50;44.10;;;;;;5100803;28;21100;-78
2021/06/01 08:50:48;;;;;;;29.43;27.83;;;20.60;43.80;;;;;;5102376;27;20457;-78
2021/06/01 08:53:15;;;;;;;28.57;26.90;;;20.70;43.60;;;;;;5099392;28;20533;-78
2021/06/01 08:55:42;;;;;;;30.33;28.63;;;20.80;42.50;;;;;;5099057;28;20483;-79
2021/06/01 08:58:13;;;;;;;28.33;26.73;;;20.80;42.50;;;;;;5097067;28;20496;-80
2021/06/01 09:00:41;;;;;;;31.97;30.07;;;20.80;42.30;;;;;;5102757;27;20460;-79
2021/06/01 09:03:11;;;;;;;30.27;28.17;;;20.80;42.40;;;;;;5098667;27;20913;-78
2021/06/01 09:05:59;;;;;;;29.37;27.70;;;20.80;42.30;;;;;;5101558;27;20445;-78
2021/06/01 09:08:45;;;;;;;28.50;26.80;;;20.70;41.80;;;;;;5094819;28;20460;-78
2021/06/01 09:11:16;;;;;;;29.00;27.30;;;20.90;41.90;;;;;;5098403;28;20457;-79
2021/06/01 09:22:02;;;;;;;27.83;26.33;;;20.50;42.40;;;;;;5099840;27;20590;-78
2021/06/01 09:24:29;;;;;;;28.33;26.40;;;20.50;42.60;;;;;;5101518;28;20454;-79
2021/06/01 09:27:01;;;;;;;28.80;27.23;;;20.60;41.90;;;;;;5099255;27;20456;-79
2021/06/01 09:29:29;;;;;;;28.30;26.50;;;20.70;41.60;;;;;;5094934;27;20529;-79
2021/06/01 09:32:12;;;;;;;28.70;27.20;;;20.90;41.30;;;;;;5097828;27;20484;-78
2021/06/01 09:34:41;;;;;;;30.17;28.50;;;21.10;40.90;;;;;;5095570;27;20813;-78
2021/06/01 09:37:25;;;;;;;28.20;26.60;;;21.10;40.30;;;;;;5094300;28;20460;-78
2021/06/01 09:40:19;;;;;;;27.07;25.57;;;21.10;39.90;;;;;;5093430;27;20460;-78
2021/06/01 09:42:47;;;;;;;28.70;26.97;;;21.10;40.70;;;;;;5062627;28;20464;-78
2021/06/01 09:45:16;;;;;;;28.33;26.80;;;21.40;40.50;;;;;;5095840;28;20907;-79
2021/06/01 09:47:55;;;;;;;29.93;28.23;;;21.40;39.50;;;;;;5094687;28;20501;-78
2021/06/01 09:50:29;;;;;;;29.30;27.43;;;21.50;39.80;;;;;;5097393;27;20451;-78
2021/06/01 09:52:59;;;;;;;27.63;26.13;;;21.70;39.90;;;;;;5095882;28;20848;-78
2021/06/01 09:55:30;;;;;;;28.70;27.10;;;21.30;39.90;;;;;;5101517;28;20497;-78
2021/06/01 09:57:58;;;;;;;27.13;25.53;;;21.00;39.40;;;;;;5098878;28;21037;-78
2021/06/01 10:00:26;;;;;;;29.40;27.70;;;21.00;40.60;;;;;;5098837;28;20475;-78
2021/06/01 10:02:57;;;;;;;28.73;27.10;;;20.90;41.10;;;;;;5094479;28;20912;-78
2021/06/01 10:05:25;;;;;;;32.30;30.27;;;21.10;41.30;;;;;;5100632;28;20495;-78
2021/06/01 10:07:54;;;;;;;27.90;26.40;;;21.30;40.30;;;;;;5097165;28;20462;-78
2021/06/01 10:10:35;;;;;;;28.30;26.70;;;21.50;40.40;;;;;;5108949;28;21129;-78
2021/06/01 10:13:22;;;;;;;28.23;26.77;;;21.70;39.60;;;;;;5114047;28;20494;-79
2021/06/01 10:15:50;;;;;;;29.27;27.50;;;21.60;40.90;;;;;;5110281;28;20515;-78
2021/06/01 10:18:20;;;;;;;29.17;27.30;;;21.70;41.90;;;;;;5101564;27;21317;-79
2021/06/01 10:20:48;;;;;;;31.13;29.43;;;21.80;40.10;;;;;;5101838;27;20782;-79
2021/06/01 10:23:19;;;;;;;28.20;26.60;;;21.70;40.10;;;;;;5091393;28;20501;-79
2021/06/01 10:25:46;;;;;;;29.10;27.30;;;21.90;39.20;;;;;;5097162;27;20905;-78
2021/06/01 10:28:12;;;;;;;27.97;26.47;;;22.10;40.10;;;;;;5098976;28;20456;-79
2021/06/01 10:30:40;;;;;;;28.40;26.63;;;22.20;40.60;;;;;;5102342;27;20493;-77
2021/06/01 10:33:10;;;;;;;27.60;26.10;;;22.30;39.90;;;;;;5103803;28;20581;-81
2021/06/01 10:35:43;;;;;;;29.33;27.43;;;22.40;40.00;;;;;;5107245;27;20468;-84
2021/06/01 10:44:36;;;;;;;29.30;27.60;;;22.50;40.50;;;;;;5116810;28;20525;-80
2021/06/01 10:52:33;;;;;;;29.57;27.93;;;22.60;39.60;;;;;;5108208;28;20766;-86
2021/06/01 10:55:09;;;;;;;28.80;27.20;;;22.60;39.50;;;;;;5109792;28;20844;-85
2021/06/01 10:57:56;;;;;;;29.13;27.53;;;22.30;40.10;;;;;;5120884;28;20811;-85
2021/06/01 11:03:15;;;;;;;33.47;31.70;;;22.40;39.40;;;;;;5105728;28;20505;-84
2021/06/01 11:06:10;;;;;;;30.00;28.20;;;22.50;40.00;;;;;;5108988;27;20548;-84
2021/06/01 11:08:42;;;;;;;29.93;28.23;;;22.40;39.60;;;;;;5105116;28;20448;-84
2021/06/01 11:11:33;;;;;;;29.00;27.40;;;22.60;39.00;;;;;;5111834;28;20467;-83
2021/06/01 11:14:01;;;;;;;29.60;28.00;;;22.60;38.10;;;;;;5109211;27;20488;-82
2021/06/01 11:16:53;;;;;;;28.53;26.97;;;22.40;38.80;;;;;;5131102;27;20467;-82
2021/06/01 11:19:21;;;;;;;30.83;29.03;;;22.70;39.30;;;;;;5108720;27;20629;-83
2021/06/01 11:21:58;;;;;;;29.73;27.93;;;22.80;38.70;;;;;;5120541;27;20459;-81
2021/06/01 11:33:22;;;;;;;29.93;28.23;;;22.70;37.60;;;;;;5110636;28;20527;-81
2021/06/01 11:36:03;;;;;;;30.43;28.63;;;22.50;37.80;;;;;;5111954;27;20475;-81
2021/06/01 11:38:36;;;;;;;29.17;27.27;;;22.70;39.60;;;;;;5109157;28;20575;-81
2021/06/01 11:43:51;;;;;;;28.40;26.70;;;23.10;38.70;;;;;;5110821;27;20612;-79
2021/06/01 11:46:38;;;;;;;29.87;28.17;;;23.30;38.00;;;;;;5106615;27;20451;-80
2021/06/01 11:51:50;;;;;;;28.70;27.10;;;23.40;38.70;;;;;;5105636;28;20448;-81
2021/06/01 11:54:17;;;;;;;28.20;26.50;;;23.30;37.10;;;;;;5111816;27;20460;-82
2021/06/01 11:57:09;;;;;;;29.07;27.30;;;23.20;38.00;;;;;;5114156;27;20470;-83
2021/06/01 12:02:36;;;;;;;28.97;27.27;;;23.30;38.30;;;;;;5110679;27;20474;-83
2021/06/01 12:18:54;;;;;;;29.93;28.03;;;23.60;38.50;;;;;;5095240;27;20499;-82
2021/06/01 12:21:21;;;;;;;30.93;29.13;;;23.80;37.00;;;;;;5099408;27;20457;-82
2021/06/01 12:23:51;;;;;;;30.47;28.63;;;23.90;37.30;;;;;;5104970;27;20496;-82
2021/06/01 12:26:22;;;;;;;29.40;27.60;;;23.90;37.10;;;;;;5098559;28;20458;-82
2021/06/01 12:32:00;;;;;;;30.63;28.83;;;24.30;36.60;;;;;;5107247;28;20506;-83
2021/06/01 12:34:36;;;;;;;32.20;30.20;;;24.30;37.70;;;;;;5120399;27;20764;-83
2021/06/01 12:45:47;;;;;;;30.30;28.50;;;23.90;38.30;;;;;;5106153;27;20448;-84
2021/06/01 13:14:33;;;;;;;29.07;27.37;;;24.70;36.80;;;;;;5103856;28;20474;-74
2021/06/01 13:20:00;;;;;;;30.90;28.93;;;24.60;37.70;;;;;;5102503;28;20477;-74
2021/06/01 13:22:40;;;;;;;31.80;29.80;;;24.60;37.00;;;;;;5116770;28;20571;-79
2021/06/01 13:31:03;;;;;;;29.97;28.17;;;24.80;35.90;;;;;;5114925;27;20454;-80
2021/06/01 13:36:43;;;;;;;29.80;27.33;;;24.50;36.80;;;;;;5118469;27;20946;-80
2021/06/01 13:39:27;;;;;;;28.50;26.73;;;24.70;36.20;;;;;;5118997;28;20480;-80
2021/06/01 13:47:28;;;;;;;30.40;28.50;;;24.70;35.10;;;;;;5104738;27;20448;-83
2021/06/01 13:49:58;;;;;;;29.90;28.20;;;25.10;36.10;;;;;;5107201;27;20483;-82
2021/06/01 13:52:51;;;;;;;28.70;27.00;;;24.90;35.30;;;;;;5107654;28;20476;-82
2021/06/01 13:55:25;;;;;;;29.10;27.40;;;25.00;35.50;;;;;;5105119;27;20475;-84
2021/06/01 13:58:19;;;;;;;29.10;27.50;;;25.30;35.50;;;;;;5104812;27;20871;-82
2021/06/01 14:00:53;;;;;;;30.53;28.53;;;25.30;34.20;;;;;;5102090;27;20460;-75
2021/06/01 14:31:16;;;;;;;33.17;31.20;;;25.30;34.60;;;;;;5121150;27;20881;-82
2021/06/01 14:39:40;;;;;;;29.90;28.10;;;25.40;35.60;;;;;;5088250;28;20496;-82
2021/06/01 15:04:41;;;;;;;34.13;32.33;;;26.30;34.50;;;;;;5110497;28;20451;-82
2021/06/01 15:30:04;;;;;;;32.80;30.70;;;27.20;34.40;;;;;;5104920;28;20474;-84
2021/06/01 15:32:35;;;;;;;31.30;29.40;;;27.40;34.80;;;;;;5127948;27;21132;-84
2021/06/01 16:11:33;;;;;;;29.27;27.67;;;28.90;32.80;;;;;;5111000;27;21018;-82
2021/06/01 16:14:08;;;;;;;29.33;27.43;;;29.20;32.10;;;;;;5103905;28;20463;-84
2021/06/01 16:22:33;;;;;;;30.00;28.10;;;30.00;32.10;;;;;;5101870;28;20588;-85
2021/06/01 16:30:49;;;;;;;29.27;27.53;;;33.10;26.10;;;;;;5121233;27;20478;-79
2021/06/01 16:33:28;;;;;;;30.33;28.47;;;34.00;25.70;;;;;;5116273;28;21182;-81
2021/06/01 16:41:49;;;;;;;28.70;27.20;;;37.20;22.70;;;;;;5113017;27;20521;-80
2021/06/01 16:44:20;;;;;;;30.10;28.40;;;38.00;22.10;;;;;;5114694;27;20540;-80